Hauptseite
METAR-TAF:

METAR-TAF

Flughäfen :

Flughafen Caen-Carpiquet

Caen, Frankreich

Breite: 49-11N, Länge: 000-27W, Höhe: 78 m

Beobachtung

Neuester Wetterbericht von vor 28 Minuten, um 22:30 UTC
Wind 8 kt aus Ost/Südost
Temperatur 8°C
Luftfeuchtigkeit 100%
Luftdruck 1023 hPa
Sichtweite: 1600 m
feuchter Dunst

METAR: LFRK 162230Z AUTO 11008KT 1600 BR VV/// 08/08 Q1023

Zeit: 23:58 (22:58 UTC)

Prognose

Neuester Wetterbericht von vor 3 Stunden und 53 Minuten, um 19:05 UTC
Gültige Prognose vom 16 um 19 UTC bis 16 um 24 UTC
Wind 8 kt aus Ost/Südost
Sichtweite: 5000 m
Durchbrochene Bewölkung in der Höhe von 400 ft
feuchter Dunst
Zeitweise
vom 16 um 19 UTC bis 16 um 24 UTC
Sichtweite: 1200 m

TAF: LFRK 161905Z 1619/1624 11008KT 5000 BR BKN004 TEMPO 1619/1624 1200 VV///

Wetterbeobachtungen und Prognosen von mehr als 4000 Flughäfen (METAR und TAF Bericht).

Die verfügbaren Stationen werden durch gelbe und rote Markierungen auf der Karte dargestellt.

Führen Sie die Maus auf sie, um den Namen der Station zu sehen.

Darauf klicken, um die Beobachtung von Wetterbeobachtungen und Prognosen zu sehen.

Um die Karte zu ändern : klicken Sie auf den grünen Tasten mit einem schwarzen Kreuz Zum Vergrößern, auf den grünen Button mit einem Gedankenstrich zu verkleinern, oder auf die grünen Pfeile für benachbarte Karten.


METAR-TAF: